New Orleans, Louisiana
Traffic Map
Current Weather Conditions
New Orleans, Louisiana
Scattered Clouds
Scattered Clouds
93°
Feels Like: 101°
Wind Chill: 93° Ceiling: Unl
Heat Index: 101° Visibility: 10mi
Dew Point: 72° Wind: 7mph
Humidity: 49% Direction: 30° (NNE)
Pressure: 30.01in Gusts: 0mph
Raw Report DataK7N0 301815Z AUTO 03006KT 10SM SCT043 SCT050 34/22 A3001 RMK AO1
Traffic Incident Summary
Active as of:
Severity:
Category:
InformationThere was an issue retrieving the traffic information for this location. Please try a different location or try again shortly.
Advertisements
Track Severe Weather on mobile